Pagina principale
METAR-TAF:

METAR-TAF

Aeroporti :

Puerto Carreño, Colombia

latitudine: 06-10N, longitudine: 067-30W, altezza: 55 m

Osservazione

Il bollettino è stato emesso 2 ore e 47 minuti fa, alle 23:00 UTC
Vento 3 kt da sud-est
Temperature 28°C
Umidità 89%
Pressione 1009 hPa
Visibilità 10 km o più
Nubi sparse ad un'altezza di 1700 ft

METAR: SKPC 202300Z 13003KT 9999 SCT017 28/26 Q1009

Ora: 20:47 (01:47 UTC)


TAF: mancante

Osservazioni e previsioni meteorologiche di più di 4000 aeroporti (messaggi METAR e TAF).

Le stazioni disponibili sono rappresentate dai dischi gialli e rossi sulla carta.

Puntare il mouse per vedere il nome della stazione.

Clicca sopra per visualizzare le osservazioni e previsioni meteorologiche.

Per cambiare la mappa : fare clic sui pulsanti verdi con una croce nera per ingrandire, il pulsante verde con un trattino per diminuire, o sulla freccia verde per le mappe adiacenti.


METAR-TAF: